TAF Text Data
IDs:
Format:
Raw Decoded Include METAR

Data at: 2119 UTC 01 Oct 2022

VVTS 012100Z 08003KT 7000 SCT015 SCT050 25/25 Q1008 NOSIG

TAF VVTS 011700Z 0118/0224 VRB01KT 9999 SCT017 BKN050
  BECMG 0202/0203 23010KT
  TEMPO 0206/0212 5000 SHRA BKN015 FEW017CB BKN040